createdAt,value
2022-11-10T07:43:04.769Z,7.38
2022-11-10T07:45:32.404Z,4.90
2022-11-10T07:48:03.305Z,5.97
2022-11-10T07:50:30.335Z,7.60
2022-11-10T07:53:08.012Z,9.05
2022-11-10T07:55:35.697Z,7.40
2022-11-10T07:58:02.968Z,8.30
2022-11-10T08:00:30.050Z,8.00
2022-11-10T08:03:02.510Z,9.87
2022-11-10T08:05:29.570Z,6.90
2022-11-10T08:07:56.664Z,7.20
2022-11-10T08:10:23.763Z,7.60
2022-11-10T08:12:54.753Z,6.63
2022-11-10T08:15:21.813Z,8.20
2022-11-10T08:17:49.073Z,8.85
2022-11-10T08:20:16.358Z,9.45
2022-11-10T08:22:43.690Z,9.10
2022-11-10T08:25:10.704Z,9.13
2022-11-10T08:27:37.766Z,7.00
2022-11-10T08:30:09.879Z,9.93
2022-11-10T08:35:20.240Z,9.38
2022-11-10T08:37:47.258Z,6.22
2022-11-10T08:40:15.380Z,10.35
2022-11-10T08:42:42.616Z,11.63
2022-11-10T08:45:09.802Z,8.45
2022-11-10T08:47:36.963Z,9.60
2022-11-10T08:50:04.271Z,6.90
2022-11-10T08:56:45.381Z,7.38
2022-11-10T08:59:12.484Z,6.63
2022-11-10T09:01:39.529Z,6.13
2022-11-10T09:04:08.975Z,8.65
2022-11-10T09:06:36.137Z,8.52
2022-11-10T09:09:03.269Z,9.73
2022-11-10T09:11:30.812Z,5.10
2022-11-10T09:13:57.968Z,4.43
2022-11-10T09:16:25.008Z,3.95
2022-11-10T09:18:52.119Z,4.78
2022-11-10T09:21:19.185Z,2.72
2022-11-10T09:23:46.323Z,5.93
2022-11-10T09:26:13.390Z,5.43
2022-11-10T09:28:40.562Z,7.03
2022-11-10T09:31:07.696Z,6.60
2022-11-10T09:33:34.790Z,8.95
2022-11-10T09:36:02.685Z,2.88
2022-11-10T09:38:29.719Z,4.10
2022-11-10T09:40:56.796Z,2.63
2022-11-10T09:43:34.690Z,3.15
2022-11-10T09:46:04.591Z,2.10
2022-11-10T09:48:33.707Z,4.35
2022-11-10T09:51:06.571Z,5.10
2022-11-10T09:53:39.660Z,1.70
2022-11-10T09:56:07.747Z,3.35
2022-11-10T09:58:44.817Z,4.10
2022-11-10T10:01:35.098Z,1.40
2022-11-10T10:04:17.275Z,6.90
2022-11-10T10:07:10.295Z,8.13
2022-11-10T10:09:43.713Z,4.27
2022-11-10T10:12:22.305Z,2.22
2022-11-10T10:15:01.870Z,6.47
2022-11-10T10:17:39.795Z,4.78
2022-11-10T10:20:27.325Z,7.38
2022-11-10T10:23:09.729Z,7.07
2022-11-10T10:25:38.878Z,8.55
2022-11-10T10:28:08.656Z,5.40
2022-11-10T10:30:35.737Z,4.30
2022-11-10T10:33:12.330Z,6.65
2022-11-10T10:35:42.060Z,4.97
2022-11-10T10:38:28.961Z,3.50
2022-11-10T10:40:59.592Z,6.00
2022-11-10T10:43:28.938Z,3.92
2022-11-10T10:46:06.564Z,4.47
2022-11-10T10:48:33.767Z,7.05
2022-11-10T10:51:01.055Z,5.03
2022-11-10T10:53:28.190Z,5.10
2022-11-10T10:56:14.215Z,5.05
2022-11-10T10:58:52.435Z,6.50
2022-11-10T11:01:19.529Z,5.35
2022-11-10T11:03:47.749Z,4.82
2022-11-10T11:06:14.783Z,3.80
2022-11-10T11:09:00.848Z,5.88
2022-11-10T11:11:46.782Z,5.28
2022-11-10T11:14:24.150Z,5.97
2022-11-10T11:16:56.338Z,7.32
2022-11-10T11:19:25.974Z,5.90
2022-11-10T11:21:56.131Z,4.15
2022-11-10T11:24:23.138Z,5.90
2022-11-10T11:26:50.298Z,4.90
2022-11-10T11:29:23.584Z,3.75
2022-11-10T11:31:59.651Z,6.45
2022-11-10T11:34:38.972Z,6.55
2022-11-10T11:37:16.563Z,6.05
2022-11-10T11:40:21.531Z,4.93
2022-11-10T11:42:54.806Z,6.05
2022-11-10T11:45:39.915Z,6.32
2022-11-10T11:48:26.160Z,5.20
2022-11-10T11:50:58.773Z,8.03
2022-11-10T11:53:39.882Z,8.18
2022-11-10T11:56:17.031Z,6.10
2022-11-10T11:58:55.685Z,9.52
2022-11-10T12:01:31.031Z,7.45
2022-11-10T12:03:58.012Z,7.95
2022-11-10T12:06:25.045Z,8.93
2022-11-10T12:08:58.243Z,5.32
2022-11-10T12:11:34.348Z,5.60
2022-11-10T12:14:01.400Z,6.75
2022-11-10T12:16:33.360Z,6.90
2022-11-10T12:19:21.792Z,8.30
2022-11-10T12:22:00.149Z,8.50
2022-11-10T12:24:33.442Z,8.57
2022-11-10T12:27:03.838Z,6.88
2022-11-10T12:29:33.770Z,4.38
2022-11-10T12:32:08.314Z,6.50
2022-11-10T12:34:43.848Z,5.03
2022-11-10T12:37:15.667Z,7.40
2022-11-10T12:39:46.956Z,6.05
2022-11-10T12:42:22.524Z,5.32
2022-11-10T12:44:49.719Z,3.92
2022-11-10T12:47:19.506Z,4.55
2022-11-10T12:50:06.795Z,6.20
2022-11-10T12:52:38.051Z,4.78
2022-11-10T12:55:05.273Z,5.68
2022-11-10T12:57:32.574Z,6.20
2022-11-10T13:00:01.579Z,8.57
2022-11-10T13:02:34.563Z,7.25
2022-11-10T13:05:20.410Z,9.45
2022-11-10T13:07:49.322Z,9.60
2022-11-10T13:10:19.494Z,6.70
2022-11-10T13:13:04.817Z,7.22
2022-11-10T13:15:38.112Z,8.07
2022-11-10T13:18:25.412Z,6.03
2022-11-10T13:20:53.513Z,8.48
2022-11-10T13:23:30.505Z,9.18
2022-11-10T13:26:26.959Z,10.97
2022-11-10T13:28:58.206Z,5.60
2022-11-10T13:31:28.741Z,7.68
2022-11-10T13:34:01.949Z,7.40
2022-11-10T13:36:55.292Z,9.23
2022-11-10T13:39:22.903Z,10.25
2022-11-10T13:42:05.330Z,4.97
2022-11-10T13:44:39.831Z,10.00
2022-11-10T13:47:10.205Z,10.35
2022-11-10T13:49:52.466Z,6.13
2022-11-10T13:52:22.286Z,11.02
2022-11-10T13:54:59.137Z,8.67
2022-11-10T13:57:37.341Z,11.00
2022-11-10T14:00:18.055Z,9.20
2022-11-10T14:02:45.136Z,16.90
2022-11-10T14:05:31.250Z,16.38
2022-11-10T14:08:03.821Z,23.98
2022-11-10T14:10:39.184Z,20.27
2022-11-10T14:13:12.095Z,20.00
2022-11-10T14:15:52.821Z,17.38
